Time;durP1;ratioP1;P1;durP2;ratioP2;P2;SDS_P1;SDS_P2;PMS_P1;PMS_P2;Temp;Humidity;BMP_temperature;BMP_pressure;BME280_temperature;BME280_humidity;BME280_pressure;Samples;Min_cycle;Max_cycle;Signal;HPM_P1;HPM_P2
2023/08/28 00:01:28;;;;;;;;;;;120.61;114.10;;;;;;2670311;76;20492;-95
2023/08/28 00:05:38;;;;;;;;;;;120.61;114.10;;;;;;2671570;76;20350;-95
2023/08/28 00:09:22;;;;;;;;;;;120.61;114.10;;;;;;2671542;76;20332;-95
2023/08/28 00:25:31;;;;;;;;;;;120.61;114.10;;;;;;2670275;76;20474;-95
2023/08/28 00:33:27;;;;;;;;;;;;;;;;;;;;;
2023/08/28 00:37:14;;;;;;;;;;;120.61;114.10;;;;;;2670348;76;20467;-95
2023/08/28 00:54:20;;;;;;;;;;;120.61;114.10;;;;;;2670295;76;20449;-95
2023/08/28 01:20:45;;;;;;;;;;;;;;;;;;;;;
2023/08/28 01:30:20;;;;;;;;;;;120.61;114.10;;;;;;2671523;76;20464;-94
2023/08/28 01:34:23;;;;;;;;;;;120.61;114.10;;;;;;2672521;76;20919;-94
2023/08/28 01:38:48;;;;;;;;;;;120.61;114.10;;;;;;2672666;75;20559;-93
2023/08/28 01:42:38;;;;;;;;;;;120.61;114.10;;;;;;2673138;76;20539;-93
2023/08/28 01:50:43;;;;;;;;;;;120.61;114.10;;;;;;2673333;75;20494;-92
2023/08/28 01:54:16;;;;;;;;;;;120.61;114.10;;;;;;2674035;76;20501;-93
2023/08/28 01:57:41;;;;;;;;;;;120.61;114.10;;;;;;2673151;75;20324;-92
2023/08/28 02:05:05;;;;;;;;;;;120.61;114.10;;;;;;2674125;76;20327;-93
2023/08/28 02:08:45;;;;;;;;;;;120.61;114.10;;;;;;2674787;76;20441;-93
2023/08/28 02:12:28;;;;;;;;;;;120.61;114.10;;;;;;2674009;75;20470;-91
2023/08/28 02:15:57;;;;;;;;;;;120.61;114.10;;;;;;2674673;75;20456;-91
2023/08/28 02:19:30;;;;;;;;;;;120.61;114.10;;;;;;2673269;76;20456;-92
2023/08/28 02:23:06;;;;;;;;;;;120.61;114.10;;;;;;2673086;76;20359;-92
2023/08/28 02:26:42;;;;;;;;;;;120.61;114.10;;;;;;2672258;76;20997;-92
2023/08/28 02:38:06;;;;;;;;;;;120.61;114.10;;;;;;2670926;76;20463;-92
2023/08/28 02:46:17;;;;;;;;;;;120.61;114.10;;;;;;2671198;76;20401;-91
2023/08/28 02:49:51;;;;;;;;;;;120.61;114.10;;;;;;2671015;76;20455;-93
2023/08/28 02:53:23;;;;;;;;;;;120.61;114.10;;;;;;2672424;76;20324;-91
2023/08/28 02:56:51;;;;;;;;;;;120.61;114.10;;;;;;2671415;76;20303;-92
2023/08/28 03:00:25;;;;;;;;;;;120.61;114.10;;;;;;2672894;76;20303;-91
2023/08/28 03:03:59;;;;;;;;;;;120.61;114.10;;;;;;2672739;76;20485;-92
2023/08/28 03:07:33;;;;;;;;;;;120.61;114.10;;;;;;2672529;76;20437;-92
2023/08/28 03:11:14;;;;;;;;;;;120.61;114.10;;;;;;2672447;76;20436;-93
2023/08/28 03:14:48;;;;;;;;;;;120.61;114.10;;;;;;2671001;76;20883;-93
2023/08/28 03:19:07;;;;;;;;;;;120.61;114.10;;;;;;2670271;76;20649;-93
2023/08/28 03:26:28;;;;;;;;;;;120.61;114.10;;;;;;2670659;76;20885;-93
2023/08/28 03:30:32;;;;;;;;;;;120.61;114.10;;;;;;2668792;76;20476;-94
2023/08/28 03:34:17;;;;;;;;;;;120.61;114.10;;;;;;2670064;76;20761;-94
2023/08/28 03:37:48;;;;;;;;;;;;;;;;;;;;;
2023/08/28 03:41:31;;;;;;;;;;;120.61;114.10;;;;;;2670554;76;20439;-93
2023/08/28 03:53:13;;;;;;;;;;;120.61;114.10;;;;;;2669504;76;20460;-94
2023/08/28 03:57:19;;;;;;;;;;;120.61;114.10;;;;;;2670574;76;20507;-93
2023/08/28 04:20:23;;;;;;;;;;;120.61;114.10;;;;;;2670496;76;20471;-93
2023/08/28 04:24:29;;;;;;;;;;;120.61;114.10;;;;;;2670269;76;20458;-93
2023/08/28 04:31:52;;;;;;;;;;;120.61;114.10;;;;;;2672529;76;20428;-92
2023/08/28 04:35:20;;;;;;;;;;;120.61;114.10;;;;;;2673042;76;20945;-92
2023/08/28 04:38:48;;;;;;;;;;;120.61;114.10;;;;;;2672675;76;20341;-91
2023/08/28 04:42:16;;;;;;;;;;;120.61;114.10;;;;;;2672959;76;20438;-91
2023/08/28 04:45:45;;;;;;;;;;;120.61;114.10;;;;;;2673000;76;20455;-92
2023/08/28 04:49:13;;;;;;;;;;;120.61;114.10;;;;;;2672601;76;20424;-92
2023/08/28 04:52:41;;;;;;;;;;;120.61;114.10;;;;;;2672315;76;20524;-92
2023/08/28 04:56:09;;;;;;;;;;;120.61;114.10;;;;;;2672432;76;20479;-92
2023/08/28 04:59:38;;;;;;;;;;;120.61;114.10;;;;;;2672372;76;20428;-92
2023/08/28 05:03:06;;;;;;;;;;;120.61;114.10;;;;;;2672813;76;20834;-93
2023/08/28 05:06:54;;;;;;;;;;;120.61;114.10;;;;;;2672889;76;20438;-92
2023/08/28 05:10:20;;;;;;;;;;;120.61;114.10;;;;;;2673175;76;20372;-93
2023/08/28 05:13:49;;;;;;;;;;;120.61;114.10;;;;;;2672706;76;20384;-91
2023/08/28 05:17:23;;;;;;;;;;;120.61;114.10;;;;;;2672205;76;20320;-91
2023/08/28 05:20:51;;;;;;;;;;;120.61;114.10;;;;;;2672763;76;20358;-92
2023/08/28 05:24:25;;;;;;;;;;;120.61;114.10;;;;;;2672694;76;20453;-93
2023/08/28 05:27:53;;;;;;;;;;;120.61;114.10;;;;;;2672689;76;20318;-92
2023/08/28 05:31:24;;;;;;;;;;;120.61;114.10;;;;;;2671834;76;20794;-91
2023/08/28 05:34:53;;;;;;;;;;;120.61;114.10;;;;;;2672908;76;20355;-93
2023/08/28 05:38:22;;;;;;;;;;;120.61;114.10;;;;;;2672236;76;20470;-92
2023/08/28 05:41:57;;;;;;;;;;;120.61;114.10;;;;;;2672519;76;21091;-92
2023/08/28 05:45:23;;;;;;;;;;;120.61;114.10;;;;;;2672121;76;20920;-92
2023/08/28 05:48:51;;;;;;;;;;;120.61;114.10;;;;;;2672409;76;20807;-92
2023/08/28 05:52:19;;;;;;;;;;;120.61;114.10;;;;;;2672152;76;20484;-90
2023/08/28 05:55:48;;;;;;;;;;;120.61;114.10;;;;;;2672442;76;20565;-91
2023/08/28 05:59:16;;;;;;;;;;;120.61;114.10;;;;;;2672896;76;20467;-91
2023/08/28 06:02:44;;;;;;;;;;;120.61;114.10;;;;;;2672751;76;20427;-91
2023/08/28 06:06:12;;;;;;;;;;;120.61;114.10;;;;;;2672763;76;20412;-91
2023/08/28 06:09:40;;;;;;;;;;;120.61;114.10;;;;;;2672856;76;20458;-89
2023/08/28 06:13:08;;;;;;;;;;;120.61;114.10;;;;;;2673399;76;20483;-89
2023/08/28 06:16:36;;;;;;;;;;;120.61;114.10;;;;;;2673694;76;20499;-89
2023/08/28 06:20:05;;;;;;;;;;;120.61;114.10;;;;;;2673346;76;20988;-90
2023/08/28 06:23:33;;;;;;;;;;;120.61;114.10;;;;;;2672835;76;20424;-90
2023/08/28 06:27:07;;;;;;;;;;;120.61;114.10;;;;;;2673063;76;20808;-91
2023/08/28 06:30:36;;;;;;;;;;;120.61;114.10;;;;;;2673256;76;20450;-90
2023/08/28 06:34:04;;;;;;;;;;;120.61;114.10;;;;;;2672942;76;20881;-90
2023/08/28 06:37:32;;;;;;;;;;;120.61;114.10;;;;;;2672804;76;20329;-91
2023/08/28 06:41:01;;;;;;;;;;;120.61;114.10;;;;;;2673055;76;20437;-90
2023/08/28 06:44:29;;;;;;;;;;;120.61;114.10;;;;;;2673013;76;20454;-90
2023/08/28 06:47:57;;;;;;;;;;;120.61;114.10;;;;;;2672378;76;20492;-90
2023/08/28 06:51:25;;;;;;;;;;;120.61;114.10;;;;;;2673073;76;20462;-90
2023/08/28 06:54:54;;;;;;;;;;;120.61;114.10;;;;;;2672701;76;20714;-90
2023/08/28 06:58:22;;;;;;;;;;;120.61;114.10;;;;;;2672637;76;20477;-89
2023/08/28 07:01:50;;;;;;;;;;;120.61;114.10;;;;;;2673080;76;20421;-90
2023/08/28 07:05:18;;;;;;;;;;;120.61;114.10;;;;;;2672900;76;20516;-90
2023/08/28 07:08:50;;;;;;;;;;;120.61;114.10;;;;;;2672956;76;20443;-91
2023/08/28 07:12:17;;;;;;;;;;;120.61;114.10;;;;;;2672257;76;20474;-90
2023/08/28 07:15:45;;;;;;;;;;;120.61;114.10;;;;;;2673330;76;20434;-90
2023/08/28 07:19:13;;;;;;;;;;;120.61;114.10;;;;;;2673069;76;20466;-90
2023/08/28 07:22:41;;;;;;;;;;;120.61;114.10;;;;;;2672943;76;20457;-90
2023/08/28 07:26:09;;;;;;;;;;;120.61;114.10;;;;;;2673088;76;20471;-89
2023/08/28 07:29:37;;;;;;;;;;;120.61;114.10;;;;;;2672675;76;20439;-90
2023/08/28 07:33:05;;;;;;;;;;;120.61;114.10;;;;;;2673163;76;20442;-90
2023/08/28 07:36:37;;;;;;;;;;;120.61;114.10;;;;;;2673179;76;20431;-90
2023/08/28 07:40:05;;;;;;;;;;;120.61;114.10;;;;;;2673339;76;20445;-90
2023/08/28 07:43:34;;;;;;;;;;;120.61;114.10;;;;;;2672770;76;20462;-90
2023/08/28 07:47:02;;;;;;;;;;;120.61;114.10;;;;;;2673142;76;20462;-91
2023/08/28 07:50:30;;;;;;;;;;;120.61;114.10;;;;;;2672611;76;20426;-91
2023/08/28 07:53:58;;;;;;;;;;;120.61;114.10;;;;;;2673347;76;20374;-91
2023/08/28 07:57:34;;;;;;;;;;;120.61;114.10;;;;;;2673056;76;20347;-92
2023/08/28 08:01:02;;;;;;;;;;;120.61;114.10;;;;;;2672668;76;20372;-90
2023/08/28 08:04:33;;;;;;;;;;;120.61;114.10;;;;;;2673409;76;21090;-90
2023/08/28 08:08:01;;;;;;;;;;;120.61;114.10;;;;;;2672892;76;20310;-90
2023/08/28 08:11:30;;;;;;;;;;;120.61;114.10;;;;;;2672078;76;20432;-91
2023/08/28 08:15:07;;;;;;;;;;;120.61;114.10;;;;;;2672935;76;20463;-92
2023/08/28 08:18:36;;;;;;;;;;;120.61;114.10;;;;;;2672977;76;20345;-91
2023/08/28 08:22:07;;;;;;;;;;;120.61;114.10;;;;;;2673431;76;20471;-92
2023/08/28 08:25:35;;;;;;;;;;;120.61;114.10;;;;;;2673337;76;20484;-92
2023/08/28 08:29:04;;;;;;;;;;;120.61;114.10;;;;;;2672915;76;20438;-92
2023/08/28 08:32:32;;;;;;;;;;;120.61;114.10;;;;;;2673021;76;20889;-92
2023/08/28 08:36:00;;;;;;;;;;;120.61;114.10;;;;;;2672991;76;20465;-90
2023/08/28 08:39:28;;;;;;;;;;;120.61;114.10;;;;;;2672527;76;20973;-90
2023/08/28 08:42:56;;;;;;;;;;;120.61;114.10;;;;;;2672620;76;20539;-91
2023/08/28 08:46:25;;;;;;;;;;;120.61;114.10;;;;;;2672705;76;20462;-91
2023/08/28 08:49:53;;;;;;;;;;;120.61;114.10;;;;;;2672680;76;20348;-90
2023/08/28 08:53:22;;;;;;;;;;;120.61;114.10;;;;;;2672586;76;20924;-92
2023/08/28 08:56:50;;;;;;;;;;;120.61;114.10;;;;;;2673141;76;20460;-91
2023/08/28 09:00:21;;;;;;;;;;;120.61;114.10;;;;;;2672135;76;20435;-91
2023/08/28 09:03:48;;;;;;;;;;;120.61;114.10;;;;;;2672878;76;20487;-90
2023/08/28 09:07:20;;;;;;;;;;;120.61;114.10;;;;;;2672825;76;20426;-91
2023/08/28 09:10:48;;;;;;;;;;;120.61;114.10;;;;;;2672903;76;20872;-91
2023/08/28 09:14:16;;;;;;;;;;;120.61;114.10;;;;;;2672834;76;20426;-92
2023/08/28 09:17:44;;;;;;;;;;;120.61;114.10;;;;;;2672311;76;20495;-91
2023/08/28 09:21:12;;;;;;;;;;;120.61;114.10;;;;;;2672424;76;20433;-90
2023/08/28 09:24:40;;;;;;;;;;;120.61;114.10;;;;;;2672236;76;20423;-92
2023/08/28 09:28:08;;;;;;;;;;;120.61;114.10;;;;;;2672638;76;20928;-93
2023/08/28 09:31:37;;;;;;;;;;;120.61;114.10;;;;;;2672729;76;20494;-93
2023/08/28 09:35:05;;;;;;;;;;;120.61;114.10;;;;;;2673150;76;20415;-91
2023/08/28 09:38:33;;;;;;;;;;;120.61;114.10;;;;;;2673295;76;20928;-92
2023/08/28 09:42:01;;;;;;;;;;;120.61;114.10;;;;;;2672740;76;20650;-91
2023/08/28 09:45:32;;;;;;;;;;;120.61;114.10;;;;;;2673080;76;20406;-91
2023/08/28 09:49:00;;;;;;;;;;;120.61;114.10;;;;;;2673194;76;20518;-91
2023/08/28 09:52:29;;;;;;;;;;;120.61;114.10;;;;;;2673258;76;20493;-91
2023/08/28 09:55:57;;;;;;;;;;;120.61;114.10;;;;;;2673116;76;20485;-90
2023/08/28 09:59:25;;;;;;;;;;;120.61;114.10;;;;;;2672980;76;20973;-91
2023/08/28 10:02:54;;;;;;;;;;;120.61;114.10;;;;;;2673246;76;20495;-89
2023/08/28 10:06:22;;;;;;;;;;;120.61;114.10;;;;;;2673150;76;20463;-91
2023/08/28 10:09:51;;;;;;;;;;;120.61;114.10;;;;;;2673438;76;20440;-91
2023/08/28 10:13:19;;;;;;;;;;;120.61;114.10;;;;;;2673763;76;20308;-91
2023/08/28 10:16:47;;;;;;;;;;;120.61;114.10;;;;;;2673765;76;20319;-90
2023/08/28 10:20:15;;;;;;;;;;;120.61;114.10;;;;;;2673483;76;20436;-90
2023/08/28 10:23:43;;;;;;;;;;;120.61;114.10;;;;;;2673184;76;20303;-90
2023/08/28 10:27:14;;;;;;;;;;;120.61;114.10;;;;;;2673599;76;20630;-90
2023/08/28 10:30:41;;;;;;;;;;;120.61;114.10;;;;;;2672847;76;20334;-91
2023/08/28 10:34:09;;;;;;;;;;;120.61;114.10;;;;;;2673220;76;20776;-91
2023/08/28 10:37:38;;;;;;;;;;;120.61;114.10;;;;;;2673341;76;20511;-91
2023/08/28 10:41:06;;;;;;;;;;;120.61;114.10;;;;;;2673384;76;20325;-91
2023/08/28 10:44:34;;;;;;;;;;;120.61;114.10;;;;;;2673260;76;20304;-90
2023/08/28 10:48:03;;;;;;;;;;;120.61;114.10;;;;;;2673437;76;20452;-89
2023/08/28 10:51:32;;;;;;;;;;;120.61;114.10;;;;;;2672928;76;20901;-90
2023/08/28 10:55:00;;;;;;;;;;;120.61;114.10;;;;;;2673161;76;20461;-90
2023/08/28 10:58:28;;;;;;;;;;;120.61;114.10;;;;;;2672857;76;20462;-91
2023/08/28 11:01:57;;;;;;;;;;;120.61;114.10;;;;;;2673383;76;20321;-90
2023/08/28 11:05:25;;;;;;;;;;;120.61;114.10;;;;;;2673366;76;20342;-90
2023/08/28 11:08:53;;;;;;;;;;;120.61;114.10;;;;;;2672871;76;20459;-90
2023/08/28 11:12:21;;;;;;;;;;;120.61;114.10;;;;;;2673066;76;20459;-90
2023/08/28 11:15:51;;;;;;;;;;;120.61;114.10;;;;;;2672804;76;20342;-90
2023/08/28 11:19:19;;;;;;;;;;;120.61;114.10;;;;;;2673325;76;20484;-89
2023/08/28 11:22:47;;;;;;;;;;;120.61;114.10;;;;;;2673033;76;20463;-90
2023/08/28 11:26:15;;;;;;;;;;;120.61;114.10;;;;;;2673187;76;20460;-90
2023/08/28 11:29:44;;;;;;;;;;;120.61;114.10;;;;;;2672423;76;20304;-90
2023/08/28 11:33:12;;;;;;;;;;;120.61;114.10;;;;;;2673650;76;20460;-90
2023/08/28 11:36:40;;;;;;;;;;;120.61;114.10;;;;;;2673156;76;20447;-90
2023/08/28 11:40:08;;;;;;;;;;;120.61;114.10;;;;;;2672455;76;20780;-90
2023/08/28 11:43:37;;;;;;;;;;;120.61;114.10;;;;;;2672911;76;21166;-89
2023/08/28 11:47:05;;;;;;;;;;;120.61;114.10;;;;;;2673239;76;20766;-90
2023/08/28 11:50:33;;;;;;;;;;;120.61;114.10;;;;;;2672842;76;20466;-89
2023/08/28 11:54:01;;;;;;;;;;;120.61;114.10;;;;;;2673013;76;21235;-90
2023/08/28 11:57:29;;;;;;;;;;;120.61;114.10;;;;;;2672757;76;20371;-90
2023/08/28 12:00:58;;;;;;;;;;;120.61;114.10;;;;;;2673058;76;20363;-90
2023/08/28 12:04:26;;;;;;;;;;;120.61;114.10;;;;;;2673414;76;20412;-89
2023/08/28 12:07:54;;;;;;;;;;;120.61;114.10;;;;;;2672117;76;20435;-89
2023/08/28 12:11:22;;;;;;;;;;;120.61;114.10;;;;;;2673526;76;20335;-89
2023/08/28 12:14:50;;;;;;;;;;;120.61;114.10;;;;;;2672958;76;20343;-88
2023/08/28 12:18:18;;;;;;;;;;;120.61;114.10;;;;;;2673306;76;20642;-89
2023/08/28 12:21:46;;;;;;;;;;;120.61;114.10;;;;;;2673127;76;20297;-88
2023/08/28 12:25:14;;;;;;;;;;;120.61;114.10;;;;;;2672810;76;20419;-88
2023/08/28 12:28:43;;;;;;;;;;;120.61;114.10;;;;;;2672127;76;20419;-89
2023/08/28 12:32:11;;;;;;;;;;;120.61;114.10;;;;;;2672966;76;20344;-88
2023/08/28 12:35:39;;;;;;;;;;;120.61;114.10;;;;;;2673096;76;20431;-89
2023/08/28 12:39:07;;;;;;;;;;;120.61;114.10;;;;;;2672456;76;20791;-89
2023/08/28 12:42:35;;;;;;;;;;;120.61;114.10;;;;;;2672595;76;20466;-89
2023/08/28 12:46:04;;;;;;;;;;;120.61;114.10;;;;;;2672724;76;20453;-90
2023/08/28 12:49:32;;;;;;;;;;;120.61;114.10;;;;;;2673176;76;20461;-91
2023/08/28 12:53:00;;;;;;;;;;;120.61;114.10;;;;;;2672989;76;20698;-90
2023/08/28 12:56:29;;;;;;;;;;;120.61;114.10;;;;;;2672530;76;20475;-90
2023/08/28 12:59:57;;;;;;;;;;;120.61;114.10;;;;;;2672362;76;20807;-90
2023/08/28 13:03:25;;;;;;;;;;;120.61;114.10;;;;;;2672597;76;20466;-91
2023/08/28 13:06:53;;;;;;;;;;;120.61;114.10;;;;;;2672790;76;20467;-91
2023/08/28 13:10:22;;;;;;;;;;;120.61;114.10;;;;;;2672542;76;20444;-91
2023/08/28 13:13:50;;;;;;;;;;;120.61;114.10;;;;;;2673375;76;20477;-91
2023/08/28 13:17:18;;;;;;;;;;;120.61;114.10;;;;;;2673234;76;20357;-91
2023/08/28 13:20:47;;;;;;;;;;;120.61;114.10;;;;;;2673193;76;20430;-91
2023/08/28 13:24:15;;;;;;;;;;;120.61;114.10;;;;;;2672936;76;20515;-92
2023/08/28 13:27:43;;;;;;;;;;;120.61;114.10;;;;;;2671688;76;20424;-93
2023/08/28 13:31:16;;;;;;;;;;;120.61;114.10;;;;;;2672446;76;20516;-93
2023/08/28 13:34:44;;;;;;;;;;;120.61;114.10;;;;;;2672653;76;20461;-92
2023/08/28 13:38:17;;;;;;;;;;;120.61;114.10;;;;;;2671824;76;20428;-93
2023/08/28 13:45:45;;;;;;;;;;;120.61;114.10;;;;;;2670570;76;20485;-93
2023/08/28 13:49:16;;;;;;;;;;;120.61;114.10;;;;;;2671856;76;20487;-93
2023/08/28 13:53:03;;;;;;;;;;;120.61;114.10;;;;;;2671716;76;20324;-93
2023/08/28 13:56:31;;;;;;;;;;;120.61;114.10;;;;;;2671193;76;20475;-94
2023/08/28 14:00:11;;;;;;;;;;;120.61;114.10;;;;;;2671038;76;20334;-93
2023/08/28 14:03:51;;;;;;;;;;;120.61;114.10;;;;;;2672086;76;20798;-93
2023/08/28 14:07:53;;;;;;;;;;;120.61;114.10;;;;;;2671488;76;20453;-94
2023/08/28 14:11:28;;;;;;;;;;;120.61;114.10;;;;;;2670954;76;21048;-93
2023/08/28 14:15:04;;;;;;;;;;;120.61;114.10;;;;;;2672212;76;20438;-93
2023/08/28 14:18:44;;;;;;;;;;;120.61;114.10;;;;;;2672686;76;20324;-93
2023/08/28 14:22:19;;;;;;;;;;;120.61;114.10;;;;;;2672932;76;20322;-93
2023/08/28 14:25:50;;;;;;;;;;;120.61;114.10;;;;;;2672004;76;20480;-92
2023/08/28 14:29:18;;;;;;;;;;;120.61;114.10;;;;;;2672034;76;20905;-92
2023/08/28 14:32:47;;;;;;;;;;;120.61;114.10;;;;;;2673108;76;20514;-92
2023/08/28 14:36:18;;;;;;;;;;;120.61;114.10;;;;;;2672815;76;20423;-92
2023/08/28 14:39:49;;;;;;;;;;;120.61;114.10;;;;;;2672861;76;20436;-93
2023/08/28 14:43:40;;;;;;;;;;;120.61;114.10;;;;;;2673458;76;20464;-92
2023/08/28 14:47:07;;;;;;;;;;;120.61;114.10;;;;;;2672819;76;20454;-92
2023/08/28 14:50:36;;;;;;;;;;;120.61;114.10;;;;;;2672166;76;20495;-92
2023/08/28 14:54:07;;;;;;;;;;;120.61;114.10;;;;;;2672225;76;20458;-92
2023/08/28 14:57:38;;;;;;;;;;;120.61;114.10;;;;;;2672546;76;20354;-92
2023/08/28 15:01:09;;;;;;;;;;;120.61;114.10;;;;;;2672565;76;20461;-93
2023/08/28 15:04:43;;;;;;;;;;;120.61;114.10;;;;;;2673015;76;20432;-92
2023/08/28 15:08:08;;;;;;;;;;;120.61;114.10;;;;;;2672293;76;20486;-92
2023/08/28 15:11:45;;;;;;;;;;;120.61;114.10;;;;;;2672785;76;20523;-92
2023/08/28 15:15:20;;;;;;;;;;;120.61;114.10;;;;;;2672869;76;20346;-94
2023/08/28 15:18:49;;;;;;;;;;;120.61;114.10;;;;;;2671809;76;20455;-93
2023/08/28 15:22:23;;;;;;;;;;;120.61;114.10;;;;;;2671429;76;20463;-92
2023/08/28 15:26:13;;;;;;;;;;;120.61;114.10;;;;;;2671793;76;20445;-93
2023/08/28 15:29:51;;;;;;;;;;;120.61;114.10;;;;;;2670658;76;20434;-93
2023/08/28 15:33:22;;;;;;;;;;;120.61;114.10;;;;;;2672442;76;20450;-91
2023/08/28 15:36:50;;;;;;;;;;;120.61;114.10;;;;;;2672636;76;20939;-91
2023/08/28 15:40:20;;;;;;;;;;;120.61;114.10;;;;;;2672731;76;20378;-91
2023/08/28 15:43:50;;;;;;;;;;;120.61;114.10;;;;;;2672380;76;20458;-90
2023/08/28 15:47:19;;;;;;;;;;;120.61;114.10;;;;;;2673227;76;20340;-91
2023/08/28 15:50:50;;;;;;;;;;;120.61;114.10;;;;;;2672740;76;20442;-91
2023/08/28 15:54:18;;;;;;;;;;;120.61;114.10;;;;;;2672213;76;20491;-91
2023/08/28 15:57:47;;;;;;;;;;;120.61;114.10;;;;;;2672784;76;20368;-91
2023/08/28 16:01:15;;;;;;;;;;;120.61;114.10;;;;;;2673186;76;20324;-91
2023/08/28 16:04:43;;;;;;;;;;;120.61;114.10;;;;;;2673146;76;20361;-91
2023/08/28 16:08:11;;;;;;;;;;;120.61;114.10;;;;;;2672012;76;20364;-90
2023/08/28 16:11:39;;;;;;;;;;;120.61;114.10;;;;;;2673285;76;20340;-90
2023/08/28 16:15:07;;;;;;;;;;;120.61;114.10;;;;;;2672821;76;20337;-91
2023/08/28 16:18:38;;;;;;;;;;;120.61;114.10;;;;;;2672320;76;20383;-91
2023/08/28 16:22:06;;;;;;;;;;;120.61;114.10;;;;;;2672318;76;20318;-91
2023/08/28 16:25:36;;;;;;;;;;;120.61;114.10;;;;;;2672871;76;20800;-91
2023/08/28 16:29:04;;;;;;;;;;;120.61;114.10;;;;;;2672255;76;20371;-90
2023/08/28 16:32:32;;;;;;;;;;;120.61;114.10;;;;;;2672632;76;20448;-91
2023/08/28 16:36:00;;;;;;;;;;;120.61;114.10;;;;;;2672650;76;20488;-90
2023/08/28 16:39:28;;;;;;;;;;;120.61;114.10;;;;;;2672494;76;20444;-91
2023/08/28 16:42:57;;;;;;;;;;;120.61;114.10;;;;;;2672546;76;20327;-91
2023/08/28 16:46:28;;;;;;;;;;;120.61;114.10;;;;;;2672106;76;21281;-91
2023/08/28 16:49:56;;;;;;;;;;;120.61;114.10;;;;;;2672129;76;20577;-91
2023/08/28 16:53:24;;;;;;;;;;;120.61;114.10;;;;;;2672570;76;20483;-91
2023/08/28 16:56:52;;;;;;;;;;;120.61;114.10;;;;;;2672755;76;20462;-91
2023/08/28 17:00:22;;;;;;;;;;;120.61;114.10;;;;;;2673188;76;20343;-91
2023/08/28 17:03:50;;;;;;;;;;;120.61;114.10;;;;;;2673005;76;20501;-91
2023/08/28 17:07:18;;;;;;;;;;;120.61;114.10;;;;;;2672669;76;20549;-90
2023/08/28 17:10:46;;;;;;;;;;;120.61;114.10;;;;;;2672876;76;21003;-90
2023/08/28 17:14:15;;;;;;;;;;;120.61;114.10;;;;;;2673002;76;20471;-90
2023/08/28 17:17:43;;;;;;;;;;;120.61;114.10;;;;;;2672943;76;20483;-90
2023/08/28 17:21:11;;;;;;;;;;;120.61;114.10;;;;;;2672937;76;20453;-90
2023/08/28 17:24:40;;;;;;;;;;;120.61;114.10;;;;;;2672610;76;20481;-90
2023/08/28 17:28:09;;;;;;;;;;;120.61;114.10;;;;;;2672588;76;20456;-90
2023/08/28 17:31:37;;;;;;;;;;;120.61;114.10;;;;;;2672198;76;20484;-90
2023/08/28 17:35:06;;;;;;;;;;;120.61;114.10;;;;;;2672259;76;20454;-91
2023/08/28 17:38:34;;;;;;;;;;;120.61;114.10;;;;;;2672449;76;20474;-91
2023/08/28 17:42:02;;;;;;;;;;;120.61;114.10;;;;;;2672861;76;20481;-90
2023/08/28 17:45:30;;;;;;;;;;;120.61;114.10;;;;;;2673024;76;20488;-90
2023/08/28 17:48:58;;;;;;;;;;;120.61;114.10;;;;;;2672880;76;20455;-90
2023/08/28 17:52:27;;;;;;;;;;;120.61;114.10;;;;;;2673266;76;20453;-90
2023/08/28 17:55:55;;;;;;;;;;;120.61;114.10;;;;;;2673690;76;20372;-89
2023/08/28 17:59:23;;;;;;;;;;;120.61;114.10;;;;;;2673353;76;20337;-90
2023/08/28 18:02:52;;;;;;;;;;;120.61;114.10;;;;;;2673058;76;20794;-90
2023/08/28 18:06:21;;;;;;;;;;;120.61;114.10;;;;;;2672651;76;20451;-91
2023/08/28 18:09:49;;;;;;;;;;;120.61;114.10;;;;;;2673241;76;20463;-90
2023/08/28 18:13:17;;;;;;;;;;;120.61;114.10;;;;;;2673217;76;20495;-90
2023/08/28 18:16:48;;;;;;;;;;;120.61;114.10;;;;;;2673092;76;20966;-90
2023/08/28 18:20:16;;;;;;;;;;;120.61;114.10;;;;;;2672920;76;20335;-89
2023/08/28 18:23:45;;;;;;;;;;;120.61;114.10;;;;;;2673394;76;20368;-90
2023/08/28 18:27:14;;;;;;;;;;;120.61;114.10;;;;;;2673166;76;20439;-90
2023/08/28 18:30:42;;;;;;;;;;;120.61;114.10;;;;;;2673136;76;20929;-90
2023/08/28 18:34:10;;;;;;;;;;;120.61;114.10;;;;;;2673153;76;20446;-90
2023/08/28 18:37:38;;;;;;;;;;;120.61;114.10;;;;;;2672801;76;20459;-90
2023/08/28 18:41:06;;;;;;;;;;;120.61;114.10;;;;;;2672869;76;20450;-90
2023/08/28 18:44:35;;;;;;;;;;;120.61;114.10;;;;;;2673323;76;20929;-90
2023/08/28 18:48:04;;;;;;;;;;;120.61;114.10;;;;;;2673024;76;20479;-90
2023/08/28 18:51:32;;;;;;;;;;;120.61;114.10;;;;;;2672666;76;20463;-90
2023/08/28 18:55:00;;;;;;;;;;;120.61;114.10;;;;;;2673466;76;20437;-90
2023/08/28 18:58:28;;;;;;;;;;;120.61;114.10;;;;;;2672833;76;20503;-90
2023/08/28 19:01:56;;;;;;;;;;;120.61;114.10;;;;;;2672836;76;20491;-90
2023/08/28 19:05:25;;;;;;;;;;;120.61;114.10;;;;;;2672612;76;20503;-90
2023/08/28 19:08:54;;;;;;;;;;;120.61;114.10;;;;;;2672472;76;20474;-90
2023/08/28 19:12:24;;;;;;;;;;;120.61;114.10;;;;;;2672874;76;20341;-90
2023/08/28 19:15:57;;;;;;;;;;;120.61;114.10;;;;;;2673009;76;20969;-90
2023/08/28 19:19:22;;;;;;;;;;;120.61;114.10;;;;;;2672557;76;20364;-90
2023/08/28 19:22:51;;;;;;;;;;;120.61;114.10;;;;;;2672293;76;20427;-90
2023/08/28 19:26:19;;;;;;;;;;;120.61;114.10;;;;;;2672654;76;20426;-90
2023/08/28 19:29:47;;;;;;;;;;;120.61;114.10;;;;;;2672145;76;20322;-90
2023/08/28 19:33:15;;;;;;;;;;;120.61;114.10;;;;;;2673122;76;20371;-90
2023/08/28 19:36:44;;;;;;;;;;;120.61;114.10;;;;;;2672959;76;20460;-90
2023/08/28 19:40:12;;;;;;;;;;;120.61;114.10;;;;;;2672611;76;20838;-90
2023/08/28 19:43:40;;;;;;;;;;;120.61;114.10;;;;;;2673493;76;20388;-90
2023/08/28 19:47:08;;;;;;;;;;;120.61;114.10;;;;;;2673247;76;20380;-90
2023/08/28 19:50:36;;;;;;;;;;;120.61;114.10;;;;;;2672787;76;20859;-91
2023/08/28 19:54:04;;;;;;;;;;;120.61;114.10;;;;;;2673075;76;20428;-90
2023/08/28 19:57:33;;;;;;;;;;;120.61;114.10;;;;;;2673347;76;20897;-91
2023/08/28 20:01:01;;;;;;;;;;;120.61;114.10;;;;;;2671766;76;20487;-91
2023/08/28 20:04:29;;;;;;;;;;;120.61;114.10;;;;;;2672502;76;20768;-92
2023/08/28 20:08:08;;;;;;;;;;;120.61;114.10;;;;;;2671213;76;20708;-92
2023/08/28 20:11:37;;;;;;;;;;;120.61;114.10;;;;;;2672175;76;20376;-90
2023/08/28 20:15:05;;;;;;;;;;;120.61;114.10;;;;;;2672252;76;20446;-89
2023/08/28 20:18:34;;;;;;;;;;;120.61;114.10;;;;;;2672125;76;20529;-90
2023/08/28 20:22:03;;;;;;;;;;;120.61;114.10;;;;;;2672485;76;20450;-90
2023/08/28 20:25:31;;;;;;;;;;;120.61;114.10;;;;;;2672622;76;20355;-90
2023/08/28 20:29:00;;;;;;;;;;;120.61;114.10;;;;;;2672564;76;20410;-91
2023/08/28 20:32:28;;;;;;;;;;;120.61;114.10;;;;;;2672070;76;20453;-91
2023/08/28 20:35:56;;;;;;;;;;;120.61;114.10;;;;;;2672768;76;20446;-89
2023/08/28 20:39:27;;;;;;;;;;;120.61;114.10;;;;;;2671855;76;20319;-92
2023/08/28 20:42:57;;;;;;;;;;;120.61;114.10;;;;;;2672347;76;20441;-91
2023/08/28 20:46:27;;;;;;;;;;;120.61;114.10;;;;;;2672613;76;20456;-91
2023/08/28 20:49:56;;;;;;;;;;;120.61;114.10;;;;;;2673182;76;20442;-91
2023/08/28 20:53:24;;;;;;;;;;;120.61;114.10;;;;;;2672848;76;20463;-90
2023/08/28 20:56:52;;;;;;;;;;;120.61;114.10;;;;;;2673191;76;20485;-91
2023/08/28 21:00:20;;;;;;;;;;;120.61;114.10;;;;;;2672682;76;20933;-90
2023/08/28 21:03:48;;;;;;;;;;;120.61;114.10;;;;;;2673058;76;20363;-91
2023/08/28 21:07:17;;;;;;;;;;;120.61;114.10;;;;;;2672365;76;20502;-90
2023/08/28 21:10:45;;;;;;;;;;;120.61;114.10;;;;;;2672736;76;20474;-91
2023/08/28 21:14:13;;;;;;;;;;;120.61;114.10;;;;;;2672691;76;20877;-90
2023/08/28 21:17:41;;;;;;;;;;;120.61;114.10;;;;;;2672169;76;20347;-92
2023/08/28 21:21:10;;;;;;;;;;;120.61;114.10;;;;;;2672289;76;21032;-91
2023/08/28 21:24:39;;;;;;;;;;;120.61;114.10;;;;;;2673039;76;20451;-90
2023/08/28 21:28:07;;;;;;;;;;;120.61;114.10;;;;;;2672798;76;20469;-91
2023/08/28 21:31:35;;;;;;;;;;;120.61;114.10;;;;;;2672985;76;20519;-90
2023/08/28 21:35:03;;;;;;;;;;;120.61;114.10;;;;;;2673096;76;20499;-90
2023/08/28 21:38:31;;;;;;;;;;;120.61;114.10;;;;;;2672477;76;20444;-93
2023/08/28 21:41:59;;;;;;;;;;;120.61;114.10;;;;;;2672925;76;20467;-93
2023/08/28 21:45:30;;;;;;;;;;;120.61;114.10;;;;;;2673159;76;20446;-92
2023/08/28 21:48:58;;;;;;;;;;;120.61;114.10;;;;;;2672776;76;20448;-91
2023/08/28 21:52:26;;;;;;;;;;;120.61;114.10;;;;;;2672990;76;20450;-91
2023/08/28 21:55:54;;;;;;;;;;;120.61;114.10;;;;;;2672402;76;20462;-91